Time;durP1;ratioP1;P1;durP2;ratioP2;P2;SDS_P1;SDS_P2;PMS_P1;PMS_P2;Temp;Humidity;BMP_temperature;BMP_pressure;BME280_temperature;BME280_humidity;BME280_pressure;Samples;Min_cycle;Max_cycle;Signal;HPM_P1;HPM_P2
2021/03/05 00:01:31;;;;;;;59.38;22.80;;;;;;;2.51;71.14;98902.23;1782557;78;21110;-77
2021/03/05 00:03:59;;;;;;;51.75;20.55;;;;;;;2.47;70.69;98897.94;1780195;79;21178;-78
2021/03/05 00:06:27;;;;;;;60.40;23.12;;;;;;;2.38;70.63;98880.78;1769235;79;21146;-78
2021/03/05 00:08:58;;;;;;;57.83;23.45;;;;;;;2.43;69.60;98898.75;1758389;79;21125;-78
2021/03/05 00:11:25;;;;;;;55.10;20.95;;;;;;;2.37;70.31;98891.91;1746212;79;21121;-77
2021/03/05 00:13:53;;;;;;;45.88;19.65;;;;;;;2.36;70.87;98888.89;1775318;79;21134;-78
2021/03/05 00:16:21;;;;;;;47.55;19.50;;;;;;;2.37;70.73;98892.76;1775459;79;21110;-78
2021/03/05 00:18:49;;;;;;;50.70;20.40;;;;;;;2.39;70.16;98896.62;1778560;79;21128;-78
2021/03/05 00:21:17;;;;;;;52.27;20.95;;;;;;;2.36;71.29;98904.28;1768518;79;21154;-78
2021/03/05 00:23:48;;;;;;;57.78;23.85;;;;;;;2.33;71.74;98900.44;1764877;79;21123;-79
2021/03/05 00:26:15;;;;;;;58.42;23.67;;;;;;;2.37;71.10;98903.02;1755010;80;21121;-77
2021/03/05 00:28:43;;;;;;;52.93;21.70;;;;;;;2.34;71.60;98907.27;1775460;80;21151;-78
2021/03/05 00:31:12;;;;;;;58.58;22.82;;;;;;;2.34;71.10;98902.98;1761764;80;21179;-77
2021/03/05 00:33:40;;;;;;;47.85;19.23;;;;;;;2.33;70.82;98902.58;1780423;80;21129;-78
2021/03/05 00:36:08;;;;;;;54.93;22.75;;;;;;;2.30;71.28;98905.11;1774522;80;21113;-78
2021/03/05 00:38:36;;;;;;;61.25;22.58;;;;;;;2.30;71.08;98900.41;1767574;80;21132;-78
2021/03/05 00:41:06;;;;;;;51.25;19.92;;;;;;;2.28;70.53;98894.42;1758353;80;21112;-78
2021/03/05 00:43:34;;;;;;;52.40;21.93;;;;;;;2.25;70.96;98902.08;1788379;80;21148;-78
2021/03/05 00:46:02;;;;;;;47.80;18.77;;;;;;;2.20;71.73;98895.66;1759761;80;21148;-78
2021/03/05 00:48:32;;;;;;;48.50;21.17;;;;;;;2.17;71.60;98895.22;1772641;80;21136;-78
2021/03/05 00:51:01;;;;;;;51.37;18.77;;;;;;;2.18;70.55;98896.07;1786403;80;21230;-78
2021/03/05 00:53:30;;;;;;;55.28;22.52;;;;;;;2.16;71.14;98889.64;1781728;80;21871;-78
2021/03/05 00:55:58;;;;;;;49.38;19.50;;;;;;;2.09;71.79;98890.48;1737333;80;21117;-78
2021/03/05 00:58:27;;;;;;;54.48;22.17;;;;;;;2.11;71.48;98887.50;1698944;83;21144;-77
2021/03/05 01:00:57;;;;;;;50.23;20.40;;;;;;;2.11;71.04;98891.34;1703257;81;21164;-78
2021/03/05 01:03:29;;;;;;;53.48;22.00;;;;;;;2.12;69.74;98891.77;1760647;81;21547;-78
2021/03/05 01:06:29;;;;;;;46.35;17.07;;;;;;;2.06;71.31;98884.03;1720932;81;21114;-78
2021/03/05 01:08:58;;;;;;;54.08;20.95;;;;;;;2.11;69.85;98890.46;1695070;84;21129;-77
2021/03/05 01:11:27;;;;;;;53.68;18.67;;;;;;;2.06;71.17;98880.63;1786156;80;21124;-78
2021/03/05 01:13:55;;;;;;;41.98;17.85;;;;;;;2.04;71.47;98885.73;1753315;80;22068;-78
2021/03/05 01:16:25;;;;;;;45.10;18.65;;;;;;;2.06;70.85;98880.19;1743570;80;21166;-78
2021/03/05 01:18:55;;;;;;;50.05;17.00;;;;;;;2.11;70.27;98891.75;1772401;80;21144;-78
2021/03/05 01:21:25;;;;;;;40.20;16.48;;;;;;;2.12;70.77;98889.63;1787166;80;21137;-78
2021/03/05 01:23:54;;;;;;;47.73;19.00;;;;;;;2.14;70.55;98884.09;1782650;80;21109;-78
2021/03/05 01:26:21;;;;;;;51.68;19.80;;;;;;;2.18;70.24;98876.84;1787070;79;21653;-78
2021/03/05 01:28:49;;;;;;;42.40;18.65;;;;;;;2.08;70.25;98859.26;1809214;78;21129;-78
2021/03/05 01:31:16;;;;;;;42.60;18.37;;;;;;;2.24;69.49;98867.89;1795814;78;21164;-78
2021/03/05 01:33:46;;;;;;;48.63;19.10;;;;;;;2.22;70.02;98871.30;1758821;80;21121;-78
2021/03/05 01:36:16;;;;;;;43.78;16.62;;;;;;;2.24;69.08;98864.47;1744031;80;21149;-78
2021/03/05 01:38:44;;;;;;;42.58;18.92;;;;;;;2.22;69.58;98862.33;1724425;82;21174;-77
2021/03/05 01:41:12;;;;;;;45.90;19.37;;;;;;;2.17;69.51;98852.05;1738004;81;21172;-78
2021/03/05 01:43:40;;;;;;;39.25;17.77;;;;;;;2.17;69.12;98864.87;1771350;79;21823;-78
2021/03/05 01:46:09;;;;;;;44.60;18.73;;;;;;;2.16;69.03;98865.28;1745040;81;21110;-78
2021/03/05 01:48:42;;;;;;;43.30;16.48;;;;;;;2.16;68.56;98869.12;1758918;80;21621;-78
2021/03/05 01:51:16;;;;;;;47.03;19.10;;;;;;;2.12;68.97;98871.68;1744607;81;21136;-78
2021/03/05 01:53:46;;;;;;;44.80;17.50;;;;;;;2.08;69.35;98880.20;1755372;81;21149;-78
2021/03/05 01:56:45;;;;;;;48.17;18.65;;;;;;;2.06;69.96;98883.19;1746631;81;21149;-78
2021/03/05 01:59:27;;;;;;;44.20;18.65;;;;;;;2.09;68.30;98882.78;1737077;81;21562;-78
2021/03/05 02:02:02;;;;;;;41.50;18.90;;;;;;;2.06;69.46;98890.88;1714305;81;21163;-79
2021/03/05 02:04:36;;;;;;;40.65;16.55;;;;;;;2.08;68.59;98890.03;1734395;81;21140;-78
2021/03/05 02:07:07;;;;;;;43.33;18.30;;;;;;;2.07;68.57;98892.58;1730667;81;21129;-78
2021/03/05 02:09:35;;;;;;;39.45;15.93;;;;;;;2.03;69.47;98884.03;1733096;81;21134;-78
2021/03/05 02:12:04;;;;;;;42.17;18.37;;;;;;;2.01;68.65;98881.01;1741633;81;21109;-78
2021/03/05 02:14:33;;;;;;;46.48;17.80;;;;;;;1.98;68.96;98881.86;1788655;79;21121;-78
2021/03/05 02:17:30;;;;;;;44.30;19.45;;;;;;;1.94;69.12;98882.25;1726067;81;21169;-78
2021/03/05 02:20:38;;;;;;;46.88;17.57;;;;;;;1.87;69.96;98875.80;1732999;82;21441;-78
2021/03/05 02:23:49;;;;;;;47.83;18.65;;;;;;;1.87;70.15;98880.52;1777326;79;21107;-78
2021/03/05 02:27:15;;;;;;;46.70;17.32;;;;;;;1.85;69.37;98882.62;1717935;83;21186;-77
2021/03/05 02:30:01;;;;;;;42.20;17.40;;;;;;;1.82;69.45;98885.18;1772739;79;21156;-78
2021/03/05 02:32:44;;;;;;;54.27;17.95;;;;;;;1.80;69.54;98895.41;1775496;79;21591;-78
2021/03/05 02:35:16;;;;;;;45.83;17.25;;;;;;;1.75;69.99;98884.26;1771222;79;21552;-78
2021/03/05 02:37:47;;;;;;;46.85;15.78;;;;;;;1.71;70.38;98889.81;1767295;79;21122;-78
2021/03/05 02:40:29;;;;;;;43.85;17.45;;;;;;;1.71;69.42;98892.38;1759851;79;22022;-78
2021/03/05 02:43:02;;;;;;;46.83;17.07;;;;;;;1.70;69.51;98899.61;1766645;79;21129;-78
2021/03/05 02:45:34;;;;;;;40.27;17.90;;;;;;;1.66;70.19;98895.31;1780411;79;21145;-78
2021/03/05 02:48:15;;;;;;;41.63;16.27;;;;;;;1.68;68.85;98891.06;1758255;79;21118;-78
2021/03/05 02:50:49;;;;;;;43.38;18.80;;;;;;;1.64;69.13;98887.19;1774879;79;22064;-80
2021/03/05 02:53:20;;;;;;;40.95;15.03;;;;;;;1.62;69.86;98891.45;1794284;79;21154;-78
2021/03/05 02:55:53;;;;;;;45.25;17.35;;;;;;;1.64;68.99;98898.29;1804452;79;21168;-78
2021/03/05 02:58:24;;;;;;;41.73;18.00;;;;;;;1.59;69.08;98901.23;1794964;79;21160;-78
2021/03/05 03:00:53;;;;;;;41.20;17.17;;;;;;;1.41;71.01;98879.31;1779846;79;21128;-77
2021/03/05 03:03:22;;;;;;;45.00;18.67;;;;;;;1.53;70.35;98889.66;1774209;79;21145;-78
2021/03/05 03:05:51;;;;;;;38.13;17.07;;;;;;;1.48;71.26;98892.19;1765937;79;21633;-78
2021/03/05 03:08:23;;;;;;;;;;;;;;;1.51;70.40;98890.95;1788913;79;21577;-77
2021/03/05 03:10:52;;;;;;;48.30;17.15;;;;;;;1.52;70.88;98894.36;1786867;79;20171;-77
2021/03/05 03:13:23;;;;;;;41.58;17.07;;;;;;;1.59;70.03;98893.14;1773713;79;21137;-78
2021/03/05 03:15:55;;;;;;;46.58;18.95;;;;;;;1.59;69.91;98889.70;1779699;79;21906;-78
2021/03/05 03:18:26;;;;;;;42.23;17.25;;;;;;;1.61;69.80;98892.28;1798238;79;21980;-78
2021/03/05 03:20:58;;;;;;;47.62;19.42;;;;;;;1.52;70.72;98887.52;1771476;80;21102;-78
2021/03/05 03:23:27;;;;;;;42.35;16.62;;;;;;;1.54;70.28;98888.82;1784805;79;21158;-78
2021/03/05 03:25:59;;;;;;;44.03;20.32;;;;;;;1.52;70.67;98888.80;1786720;79;21558;-77
2021/03/05 03:28:28;;;;;;;42.43;16.57;;;;;;;1.52;70.67;98893.08;1793474;79;21149;-77
2021/03/05 03:30:56;;;;;;;43.45;19.05;;;;;;;1.53;70.46;98890.93;1762123;79;21154;-78
2021/03/05 03:33:26;;;;;;;43.23;17.90;;;;;;;1.52;70.52;98889.23;1772231;79;21165;-78
2021/03/05 03:35:55;;;;;;;49.08;17.85;;;;;;;1.51;70.25;98888.38;1786406;79;21559;-77
2021/03/05 03:38:31;;;;;;;45.92;19.40;;;;;;;1.50;70.73;98888.36;1781828;79;21130;-78
2021/03/05 03:41:01;;;;;;;45.03;17.65;;;;;;;1.51;70.92;98884.94;1707477;83;21170;-78
2021/03/05 03:43:29;;;;;;;57.10;20.92;;;;;;;1.50;70.96;98887.08;1706133;83;21166;-77
2021/03/05 03:45:58;;;;;;;45.25;17.32;;;;;;;1.56;70.19;98883.28;1706175;83;22013;-78
2021/03/05 03:48:32;;;;;;;47.98;19.95;;;;;;;1.50;70.53;98883.23;1730282;81;21149;-78
2021/03/05 03:51:07;;;;;;;46.40;20.50;;;;;;;1.47;71.47;98883.20;1713525;83;21159;-78
2021/03/05 03:53:37;;;;;;;46.40;16.73;;;;;;;1.45;71.50;98884.46;1769167;79;21923;-77
2021/03/05 03:56:10;;;;;;;43.98;19.20;;;;;;;1.47;71.46;98883.20;1759767;80;21117;-78
2021/03/05 03:58:41;;;;;;;46.37;16.77;;;;;;;1.47;71.40;98887.05;1792609;79;21126;-78
2021/03/05 04:01:11;;;;;;;53.40;20.43;;;;;;;1.44;71.27;98884.48;1772957;79;21122;-76
2021/03/05 04:03:48;;;;;;;46.85;19.50;;;;;;;1.42;71.53;98875.92;1775453;79;21172;-78
2021/03/05 04:06:23;;;;;;;44.55;18.80;;;;;;;1.45;71.16;98875.92;1763638;80;21146;-77
2021/03/05 04:08:53;;;;;;;50.30;19.98;;;;;;;1.43;72.21;98873.34;1719172;82;21583;-76
2021/03/05 04:11:22;;;;;;;49.35;19.27;;;;;;;1.43;72.01;98873.78;1747470;80;21166;-78
2021/03/05 04:13:53;;;;;;;46.77;20.75;;;;;;;1.44;70.47;98882.77;1725567;81;21121;-78
2021/03/05 04:16:21;;;;;;;47.25;18.65;;;;;;;1.42;70.94;98880.61;1726031;81;21209;-77
2021/03/05 04:18:52;;;;;;;45.67;20.40;;;;;;;1.40;70.74;98873.34;1773345;79;22096;-77
2021/03/05 04:21:32;;;;;;;57.73;18.90;;;;;;;1.34;72.05;98875.85;1792465;79;21122;-78
2021/03/05 04:24:05;;;;;;;50.50;20.37;;;;;;;1.35;71.06;98877.16;1769697;79;21160;-78
2021/03/05 04:26:32;;;;;;;45.03;18.70;;;;;;;1.31;71.91;98870.69;1768678;79;21689;-78
2021/03/05 04:29:00;;;;;;;48.70;20.37;;;;;;;1.30;71.54;98872.41;1778742;79;21146;-77
2021/03/05 04:31:31;;;;;;;51.45;19.82;;;;;;;1.29;72.21;98875.80;1775239;79;21130;-78
2021/03/05 04:33:58;;;;;;;52.62;19.30;;;;;;;1.24;72.90;98872.34;1775395;79;21146;-78
2021/03/05 04:36:27;;;;;;;49.85;21.65;;;;;;;1.32;71.01;98869.86;1780430;79;21578;-77
2021/03/05 04:38:57;;;;;;;42.15;18.85;;;;;;;1.29;72.05;98872.37;1776725;79;21171;-77
2021/03/05 04:41:26;;;;;;;48.02;20.72;;;;;;;1.28;72.62;98870.25;1774226;78;21164;-78
2021/03/05 04:43:54;;;;;;;45.58;17.50;;;;;;;1.26;72.73;98873.22;1713080;82;21158;-76
2021/03/05 04:46:24;;;;;;;48.02;19.52;;;;;;;1.29;71.29;98869.81;1783010;79;21129;-78
2021/03/05 04:48:52;;;;;;;50.00;21.07;;;;;;;1.25;72.50;98869.36;1777038;79;21162;-78
2021/03/05 04:51:21;;;;;;;47.88;18.30;;;;;;;1.20;73.04;98865.48;1763804;79;21154;-78
2021/03/05 04:53:48;;;;;;;55.23;19.55;;;;;;;1.23;71.75;98863.37;1789215;79;21165;-78
2021/03/05 04:56:16;;;;;;;45.55;18.57;;;;;;;1.20;72.49;98869.33;1770092;79;21165;-78
2021/03/05 04:58:44;;;;;;;46.08;21.20;;;;;;;1.26;71.91;98865.97;1709071;82;21949;-78
2021/03/05 05:01:15;;;;;;;47.62;18.87;;;;;;;1.24;72.05;98862.53;1756767;79;21137;-77
2021/03/05 05:03:45;;;;;;;47.23;20.45;;;;;;;1.19;72.58;98856.95;1711848;82;21965;-78
2021/03/05 05:06:16;;;;;;;40.03;17.25;;;;;;;1.22;71.72;98855.27;1760865;80;21122;-77
2021/03/05 05:08:44;;;;;;;48.15;18.82;;;;;;;1.26;71.13;98852.73;1782518;79;21164;-78
2021/03/05 05:11:11;;;;;;;42.20;18.32;;;;;;;1.30;71.17;98849.34;1782696;79;21621;-77
2021/03/05 05:13:39;;;;;;;44.77;19.50;;;;;;;1.28;71.32;98852.32;1782644;79;21565;-78
2021/03/05 05:16:07;;;;;;;44.15;17.35;;;;;;;1.28;71.79;98848.91;1791801;79;21188;-78
2021/03/05 05:18:35;;;;;;;51.98;20.60;;;;;;;1.33;71.24;98851.07;1771050;79;21162;-78
2021/03/05 05:21:04;;;;;;;50.67;17.07;;;;;;;1.34;71.62;98845.97;1773485;79;21156;-77
2021/03/05 05:23:33;;;;;;;45.98;20.08;;;;;;;1.32;71.90;98850.22;1742476;81;21621;-77
2021/03/05 05:26:01;;;;;;;40.23;17.20;;;;;;;1.33;72.03;98847.23;1717218;82;22041;-77
2021/03/05 05:28:31;;;;;;;41.40;16.95;;;;;;;1.36;71.92;98849.40;1785461;79;21180;-77
2021/03/05 05:30:59;;;;;;;44.42;19.62;;;;;;;1.35;72.05;98851.54;1777145;79;21154;-77
2021/03/05 05:33:28;;;;;;;40.73;17.30;;;;;;;1.41;71.02;98851.13;1777794;79;21165;-78
2021/03/05 05:36:06;;;;;;;52.70;19.52;;;;;;;1.35;71.59;98853.22;1777607;79;21185;-78
2021/03/05 05:38:33;;;;;;;47.27;18.82;;;;;;;1.40;71.25;98847.72;1775497;79;21605;-78
2021/03/05 05:41:02;;;;;;;47.50;18.05;;;;;;;1.43;71.29;98845.59;1773907;79;21165;-77
2021/03/05 05:43:32;;;;;;;55.12;21.40;;;;;;;1.50;70.96;98851.22;1787532;79;21174;-77
2021/03/05 05:46:08;;;;;;;57.38;18.55;;;;;;;1.61;70.42;98858.53;1771795;79;21404;-78
2021/03/05 05:48:39;;;;;;;49.80;19.07;;;;;;;1.69;70.03;98856.91;1782292;79;21121;-77
2021/03/05 05:51:23;;;;;;;42.25;16.20;;;;;;;1.77;69.97;98851.80;1752349;79;21139;-78
2021/03/05 05:53:58;;;;;;;44.83;17.37;;;;;;;1.87;69.55;98867.70;1793645;79;21117;-77
2021/03/05 05:56:26;;;;;;;41.08;16.32;;;;;;;1.92;69.35;98862.59;1782241;80;21145;-78
2021/03/05 05:58:55;;;;;;;50.63;17.65;;;;;;;1.98;69.23;98858.34;1758225;79;21205;-77
2021/03/05 06:01:23;;;;;;;42.55;17.82;;;;;;;2.06;68.60;98864.80;1768748;81;21153;-79
2021/03/05 06:03:53;;;;;;;44.15;17.45;;;;;;;2.13;68.61;98866.56;1788769;79;21143;-77
2021/03/05 06:06:22;;;;;;;47.38;18.20;;;;;;;2.20;68.39;98864.87;1772395;81;21515;-77
2021/03/05 06:08:51;;;;;;;42.78;19.60;;;;;;;2.19;68.43;98861.89;1789511;79;21146;-77
2021/03/05 06:11:19;;;;;;;47.70;18.05;;;;;;;2.22;68.65;98861.89;1755902;80;21600;-78
2021/03/05 06:13:47;;;;;;;47.10;18.75;;;;;;;2.27;68.54;98867.03;1782873;79;21602;-78
2021/03/05 06:16:18;;;;;;;49.58;17.80;;;;;;;2.27;68.79;98864.06;1758146;80;21165;-77
2021/03/05 06:18:48;;;;;;;48.92;19.52;;;;;;;2.33;68.49;98863.24;1791359;79;21203;-77
2021/03/05 06:21:16;;;;;;;44.63;19.50;;;;;;;2.36;68.51;98870.94;1770443;80;21295;-78
2021/03/05 06:23:59;;;;;;;42.00;16.90;;;;;;;2.39;68.39;98859.41;1793564;79;21149;-79
2021/03/05 06:26:29;;;;;;;46.23;18.45;;;;;;;2.43;68.24;98861.14;1774535;79;21717;-77
2021/03/05 06:29:06;;;;;;;49.60;16.62;;;;;;;2.43;68.46;98874.38;1737609;81;21180;-77
2021/03/05 06:31:34;;;;;;;50.43;19.90;;;;;;;2.48;68.57;98871.41;1713771;83;21168;-78
2021/03/05 06:34:07;;;;;;;54.03;18.15;;;;;;;2.49;68.64;98873.98;1731282;81;21335;-77
2021/03/05 06:36:37;;;;;;;54.93;21.40;;;;;;;2.45;68.90;98874.83;1723867;83;21176;-77
2021/03/05 06:39:05;;;;;;;53.52;17.65;;;;;;;2.53;68.42;98873.15;1734855;81;22132;-78
2021/03/05 06:41:35;;;;;;;51.53;19.85;;;;;;;2.56;68.50;98874.86;1733328;82;21160;-77
2021/03/05 06:44:04;;;;;;;41.95;17.20;;;;;;;2.52;68.83;98883.40;1793622;80;21184;-78
2021/03/05 06:46:38;;;;;;;44.42;18.15;;;;;;;2.52;68.63;98875.27;1770525;80;21182;-77
2021/03/05 06:49:13;;;;;;;49.10;18.07;;;;;;;2.58;68.31;98888.13;1765474;80;21590;-77
2021/03/05 06:51:45;;;;;;;50.35;20.82;;;;;;;2.45;68.91;98873.55;1750872;80;21170;-78
2021/03/05 06:54:14;;;;;;;57.75;21.80;;;;;;;2.45;69.17;98877.40;1784819;80;21157;-78
2021/03/05 06:56:49;;;;;;;42.08;19.10;;;;;;;2.47;69.16;98874.84;1758969;80;21175;-78
2021/03/05 06:59:20;;;;;;;55.60;21.25;;;;;;;2.54;68.85;98874.00;1786276;80;21298;-77
2021/03/05 07:01:58;;;;;;;47.35;20.27;;;;;;;2.61;68.49;98884.73;1746632;80;21123;-77
2021/03/05 07:04:29;;;;;;;45.28;17.52;;;;;;;2.59;68.78;98881.30;1761355;80;21118;-77
2021/03/05 07:07:09;;;;;;;47.98;19.92;;;;;;;2.65;68.45;98884.32;1768582;80;21117;-77
2021/03/05 07:09:44;;;;;;;48.78;20.35;;;;;;;2.70;68.46;98882.17;1779553;80;21197;-77
2021/03/05 07:12:18;;;;;;;50.52;22.90;;;;;;;2.77;68.19;98883.07;1753919;80;21133;-78
2021/03/05 07:15:00;;;;;;;48.78;22.50;;;;;;;2.82;67.98;98882.64;1759115;80;22350;-77
2021/03/05 07:17:29;;;;;;;47.43;20.25;;;;;;;2.90;68.07;98879.66;1749552;80;21148;-77
2021/03/05 07:20:07;;;;;;;49.95;20.65;;;;;;;2.96;67.75;98878.42;1765547;80;21128;-77
2021/03/05 07:22:37;;;;;;;40.20;19.07;;;;;;;3.03;67.44;98879.27;1769574;80;21153;-77
2021/03/05 07:25:06;;;;;;;41.80;18.92;;;;;;;3.02;67.30;98884.40;1768829;80;21948;-77
2021/03/05 07:27:43;;;;;;;42.23;18.67;;;;;;;3.10;67.12;98880.98;1773633;79;21164;-77
2021/03/05 07:30:17;;;;;;;39.75;16.82;;;;;;;3.14;67.04;98886.98;1786416;80;21645;-77
2021/03/05 07:32:47;;;;;;;51.60;18.73;;;;;;;3.13;66.94;98879.71;1780369;79;21176;-77
2021/03/05 07:35:40;;;;;;;44.42;18.40;;;;;;;3.12;66.87;98879.30;1764051;80;21165;-77
2021/03/05 07:38:14;;;;;;;46.10;17.92;;;;;;;3.24;66.70;98886.57;1777591;79;21205;-78
2021/03/05 07:40:46;;;;;;;36.40;18.67;;;;;;;3.32;66.58;98882.29;1775936;80;21910;-78
2021/03/05 07:43:15;;;;;;;44.75;18.50;;;;;;;3.35;66.38;98883.59;1778791;79;21128;-78
2021/03/05 07:45:43;;;;;;;39.95;18.20;;;;;;;3.42;66.40;98882.72;1773938;79;21169;-78
2021/03/05 07:48:13;;;;;;;43.10;18.62;;;;;;;3.50;66.11;98889.15;1784836;79;21144;-78
2021/03/05 07:50:50;;;;;;;39.80;17.87;;;;;;;3.63;65.67;98884.88;1864366;74;22518;-77
2021/03/05 07:53:20;;;;;;;36.58;17.65;;;;;;;3.64;65.57;98877.17;1840451;75;21732;-77
2021/03/05 07:55:47;;;;;;;41.88;18.17;;;;;;;3.71;65.51;98876.73;1841624;75;21137;-77
2021/03/05 07:58:42;;;;;;;41.53;17.52;;;;;;;3.73;65.40;98871.16;1839640;75;21150;-77
2021/03/05 08:01:21;;;;;;;47.03;18.15;;;;;;;3.92;65.13;98866.42;1799452;79;22943;-77
2021/03/05 08:03:54;;;;;;;44.38;20.20;;;;;;;3.91;64.62;98874.13;1782756;79;21161;-76
2021/03/05 08:06:30;;;;;;;43.42;18.60;;;;;;;4.01;64.88;98868.54;1778560;80;21098;-77
2021/03/05 08:09:17;;;;;;;46.80;17.92;;;;;;;4.09;63.89;98866.36;1785627;79;21121;-76
2021/03/05 08:11:46;;;;;;;41.02;19.00;;;;;;;4.25;64.53;98861.18;1791200;80;21126;-77
2021/03/05 08:14:24;;;;;;;51.23;20.05;;;;;;;4.41;64.22;98863.27;1789598;79;21131;-77
2021/03/05 08:16:55;;;;;;;48.35;19.62;;;;;;;4.49;63.47;98865.37;1795665;79;21187;-77
2021/03/05 08:19:37;;;;;;;49.05;19.17;;;;;;;4.56;63.05;98869.20;1795049;79;21615;-77
2021/03/05 08:22:07;;;;;;;;;;;;;;;4.68;63.51;98865.72;1772409;79;21093;-76
2021/03/05 08:24:39;;;;;;;49.90;18.65;;;;;;;4.67;62.69;98860.56;1786658;79;20197;-77
2021/03/05 08:27:13;;;;;;;44.40;19.25;;;;;;;4.72;63.31;98859.69;1757792;79;21115;-76
2021/03/05 08:30:09;;;;;;;41.42;18.98;;;;;;;4.83;62.79;98858.33;1794393;79;21576;-77
2021/03/05 08:32:52;;;;;;;41.23;19.12;;;;;;;4.88;62.28;98853.17;1765300;79;21647;-76
2021/03/05 08:35:38;;;;;;;43.58;19.50;;;;;;;5.02;61.66;98847.94;1727955;83;22144;-76
2021/03/05 08:38:14;;;;;;;43.92;20.45;;;;;;;5.05;61.18;98847.89;1781764;79;21127;-76
2021/03/05 08:40:49;;;;;;;45.70;18.60;;;;;;;5.25;62.01;98843.89;1766885;80;21553;-77
2021/03/05 08:43:24;;;;;;;47.27;20.80;;;;;;;5.38;61.97;98843.78;1791852;79;21122;-76
2021/03/05 08:45:57;;;;;;;42.10;18.87;;;;;;;5.48;61.11;98837.27;1777591;79;21106;-77
2021/03/05 08:48:38;;;;;;;68.28;24.37;;;;;;;5.60;61.29;98837.15;1784412;79;21152;-77
2021/03/05 08:51:21;;;;;;;36.42;17.23;;;;;;;5.78;60.33;98841.28;1788715;80;21121;-76
2021/03/05 08:53:55;;;;;;;37.73;16.00;;;;;;;5.95;60.96;98846.31;1796604;79;21149;-77
2021/03/05 08:56:29;;;;;;;32.03;15.15;;;;;;;6.03;60.27;98833.30;1782395;80;21652;-77
2021/03/05 08:59:06;;;;;;;37.53;15.70;;;;;;;6.17;59.97;98831.00;1795187;79;21150;-76
2021/03/05 09:01:40;;;;;;;36.53;16.55;;;;;;;6.29;60.10;98824.84;1755421;80;21165;-77
2021/03/05 09:04:19;;;;;;;36.15;17.12;;;;;;;6.38;59.79;98830.32;1806205;79;21154;-76
2021/03/05 09:06:58;;;;;;;35.48;16.10;;;;;;;6.51;58.65;98825.88;1778996;79;21122;-77
2021/03/05 09:09:28;;;;;;;37.15;16.32;;;;;;;6.67;58.52;98824.79;1773833;79;21925;-76
2021/03/05 09:12:15;;;;;;;32.48;14.87;;;;;;;6.85;59.13;98822.83;1778070;79;21195;-75
2021/03/05 09:14:45;;;;;;;39.15;15.63;;;;;;;6.99;57.02;98826.06;1787303;79;21162;-77
2021/03/05 09:17:16;;;;;;;36.42;15.03;;;;;;;7.09;58.18;98824.19;1775896;79;21114;-76
2021/03/05 09:19:47;;;;;;;43.08;16.10;;;;;;;7.24;58.58;98820.50;1781857;79;21156;-75
2021/03/05 09:22:24;;;;;;;37.70;17.65;;;;;;;7.31;57.14;98815.20;1776461;79;21147;-76
2021/03/05 09:25:00;;;;;;;36.53;15.98;;;;;;;7.35;56.18;98805.67;1788219;79;21157;-76
2021/03/05 09:27:39;;;;;;;41.83;15.93;;;;;;;7.52;55.85;98806.66;1775837;79;21179;-75
2021/03/05 09:32:58;;;;;;;32.93;14.68;;;;;;;7.81;55.18;98801.42;1783457;79;23494;-77
2021/03/05 09:35:30;;;;;;;33.25;15.03;;;;;;;7.83;54.28;98806.97;1776449;79;21157;-77
2021/03/05 09:37:58;;;;;;;38.50;15.60;;;;;;;7.93;54.10;98805.07;1779767;79;21171;-77
2021/03/05 09:40:28;;;;;;;32.55;15.32;;;;;;;7.99;55.67;98803.66;1779506;80;21181;-75
2021/03/05 09:43:00;;;;;;;33.05;14.65;;;;;;;8.03;53.24;98797.53;1780456;80;21098;-77
2021/03/05 09:48:35;;;;;;;34.18;14.25;;;;;;;8.22;53.21;98789.42;1805613;78;22944;-76
2021/03/05 09:51:07;;;;;;;33.55;13.95;;;;;;;8.26;53.74;98798.83;1799948;78;21587;-76
2021/03/05 09:53:38;;;;;;;31.45;14.18;;;;;;;8.35;52.88;98792.14;1806345;79;21131;-78
2021/03/05 09:56:09;;;;;;;38.48;15.95;;;;;;;8.34;52.08;98796.48;1806886;79;21531;-78
2021/03/05 09:58:39;;;;;;;35.08;14.50;;;;;;;8.49;52.94;98794.03;1800897;79;21153;-77
2021/03/05 10:01:12;;;;;;;30.25;14.45;;;;;;;8.60;53.21;98800.74;1805210;79;21137;-77
2021/03/05 10:03:40;;;;;;;31.60;14.00;;;;;;;8.74;53.90;98789.17;1811222;78;21116;-78
2021/03/05 10:06:17;;;;;;;37.95;13.78;;;;;;;8.86;50.39;98788.49;1799202;79;21161;-78
2021/03/05 10:09:05;;;;;;;30.50;13.53;;;;;;;9.04;51.95;98784.16;1806833;78;21157;-77
2021/03/05 10:11:44;;;;;;;29.67;13.08;;;;;;;9.20;49.58;98791.13;1785812;78;21187;-77
2021/03/05 10:14:29;;;;;;;39.18;13.70;;;;;;;9.38;48.32;98784.63;1798985;78;21888;-76
2021/03/05 10:17:15;;;;;;;30.30;13.20;;;;;;;9.54;48.37;98779.91;1804547;79;21148;-78
2021/03/05 10:19:45;;;;;;;41.35;13.48;;;;;;;9.76;49.33;98773.24;1769443;79;21175;-77
2021/03/05 10:22:14;;;;;;;31.15;14.43;;;;;;;10.00;49.22;98777.36;1787357;79;21160;-77
2021/03/05 10:24:42;;;;;;;38.10;13.28;;;;;;;10.19;48.72;98772.52;1794599;79;21665;-77
2021/03/05 10:27:19;;;;;;;28.73;12.98;;;;;;;10.44;48.62;98764.03;1794522;79;21162;-76
2021/03/05 10:29:57;;;;;;;32.08;13.95;;;;;;;10.68;46.40;98768.93;1810559;79;21520;-76
2021/03/05 10:32:37;;;;;;;34.13;13.65;;;;;;;10.95;46.38;98762.87;1785711;79;21559;-77
2021/03/05 10:35:11;;;;;;;30.37;12.68;;;;;;;11.21;44.45;98757.27;1796086;79;21136;-77
2021/03/05 10:37:40;;;;;;;43.07;12.53;;;;;;;11.47;45.41;98753.79;1800960;79;21133;-76
2021/03/05 10:40:14;;;;;;;24.47;10.95;;;;;;;11.73;43.08;98752.88;1744819;81;21598;-75
2021/03/05 10:42:44;;;;;;;30.02;10.85;;;;;;;11.95;41.23;98748.24;1750463;80;21663;-75
2021/03/05 10:45:14;;;;;;;31.50;11.33;;;;;;;12.13;40.08;98741.05;1752298;81;21184;-75
2021/03/05 10:47:42;;;;;;;34.30;10.25;;;;;;;12.27;38.36;98738.39;1741795;81;21150;-76
2021/03/05 10:50:11;;;;;;;33.08;10.30;;;;;;;12.47;40.89;98718.95;1759483;81;21190;-76
2021/03/05 10:52:38;;;;;;;25.90;10.90;;;;;;;12.53;37.74;98727.83;1740877;81;21144;-76
2021/03/05 10:55:10;;;;;;;20.88;10.08;;;;;;;12.66;37.21;98720.36;1769748;80;21559;-76
2021/03/05 10:57:39;;;;;;;25.12;10.15;;;;;;;12.87;38.18;98717.37;1743623;82;21112;-76
2021/03/05 11:00:11;;;;;;;25.85;10.98;;;;;;;13.07;37.14;98716.55;1762277;81;21114;-75
2021/03/05 11:02:39;;;;;;;34.23;12.07;;;;;;;13.35;36.00;98717.17;1767072;80;21268;-76
2021/03/05 11:05:09;;;;;;;30.10;10.43;;;;;;;13.52;35.99;98715.53;1762114;81;21165;-76
2021/03/05 11:07:37;;;;;;;25.82;10.18;;;;;;;13.57;35.97;98712.74;1766112;81;21609;-75
2021/03/05 11:10:07;;;;;;;23.75;10.20;;;;;;;13.73;38.05;98714.23;1764554;81;21185;-75
2021/03/05 11:12:35;;;;;;;26.33;9.33;;;;;;;13.78;37.49;98713.55;1748482;80;21630;-72
2021/03/05 11:15:04;;;;;;;24.15;8.08;;;;;;;13.76;35.48;98708.85;1761900;81;21613;-75
2021/03/05 11:17:33;;;;;;;26.73;8.80;;;;;;;13.72;32.86;98708.59;1763574;81;21615;-76
2021/03/05 11:20:01;;;;;;;27.87;8.78;;;;;;;13.82;34.30;98697.28;1765102;81;21153;-76
2021/03/05 11:22:30;;;;;;;29.72;8.83;;;;;;;13.83;32.21;98695.08;1766812;81;21182;-74
2021/03/05 11:24:58;;;;;;;24.27;8.93;;;;;;;13.97;32.38;98693.15;1767094;81;21179;-75
2021/03/05 11:27:26;;;;;;;22.75;9.15;;;;;;;14.10;33.28;98702.11;1733347;82;21613;-75
2021/03/05 11:29:53;;;;;;;30.05;10.23;;;;;;;14.25;32.68;98690.95;1745138;81;21105;-74
2021/03/05 11:32:21;;;;;;;25.80;9.93;;;;;;;14.48;34.30;98685.96;1796854;78;21095;-74
2021/03/05 11:34:50;;;;;;;22.65;10.40;;;;;;;14.62;32.41;98679.23;1807597;78;21616;-75
2021/03/05 11:37:17;;;;;;;21.12;10.35;;;;;;;14.71;32.29;98682.72;1800228;78;21678;-74
2021/03/05 11:39:45;;;;;;;24.95;10.00;;;;;;;14.77;31.21;98687.66;1808218;79;21099;-74
2021/03/05 11:42:13;;;;;;;23.40;9.98;;;;;;;14.84;31.97;98686.88;1814584;79;21138;-73
2021/03/05 11:44:41;;;;;;;23.52;10.55;;;;;;;15.10;32.42;98675.14;1814826;78;21102;-73
2021/03/05 11:47:11;;;;;;;25.72;10.18;;;;;;;15.02;32.77;98681.20;1813272;78;21147;-76
2021/03/05 11:49:39;;;;;;;30.50;11.10;;;;;;;14.83;31.49;98684.73;1783456;79;21161;-74
2021/03/05 11:52:06;;;;;;;26.05;11.00;;;;;;;15.00;31.33;98680.43;1787728;79;21149;-74
2021/03/05 11:54:34;;;;;;;22.32;10.53;;;;;;;15.06;32.29;98685.36;1788584;79;21140;-74